createdAt,value
2024-01-17T00:00:12.616Z,5.82
2024-01-17T00:02:40.085Z,5.18
2024-01-17T00:05:07.957Z,5.40
2024-01-17T00:07:35.264Z,5.90
2024-01-17T00:10:02.494Z,5.30
2024-01-17T00:12:30.213Z,5.70
2024-01-17T00:14:57.271Z,5.70
2024-01-17T00:17:24.239Z,5.80
2024-01-17T00:19:51.880Z,5.32
2024-01-17T00:22:18.997Z,5.53
2024-01-17T00:24:46.836Z,5.40
2024-01-17T00:27:16.490Z,5.07
2024-01-17T00:29:43.356Z,4.95
2024-01-17T00:32:13.579Z,5.38
2024-01-17T00:34:40.728Z,4.93
2024-01-17T00:37:07.602Z,5.45
2024-01-17T00:39:34.937Z,5.13
2024-01-17T00:42:02.202Z,5.40
2024-01-17T00:44:30.291Z,5.30
2024-01-17T00:46:57.182Z,5.35
2024-01-17T00:49:24.174Z,5.43
2024-01-17T00:51:50.944Z,5.00
2024-01-17T00:54:17.711Z,5.28
2024-01-17T00:56:44.613Z,4.75
2024-01-17T00:59:11.489Z,4.93
2024-01-17T01:01:38.225Z,5.55
2024-01-17T01:04:05.182Z,5.40
2024-01-17T01:06:32.198Z,5.75
2024-01-17T01:08:59.149Z,4.88
2024-01-17T01:11:30.330Z,4.88
2024-01-17T01:13:57.285Z,5.00
2024-01-17T01:16:24.075Z,5.05
2024-01-17T01:18:51.358Z,4.70
2024-01-17T01:21:21.554Z,5.05
2024-01-17T01:23:48.414Z,5.03
2024-01-17T01:26:18.312Z,5.00
2024-01-17T01:28:45.347Z,4.90
2024-01-17T01:31:12.256Z,5.03
2024-01-17T01:33:39.559Z,4.55
2024-01-17T01:36:07.321Z,4.75
2024-01-17T01:38:34.848Z,4.90
2024-01-17T01:41:02.233Z,4.80
2024-01-17T01:43:29.252Z,4.80
2024-01-17T01:46:05.588Z,4.78
2024-01-17T01:48:36.942Z,4.38
2024-01-17T01:51:04.675Z,4.50
2024-01-17T01:53:35.414Z,4.47
2024-01-17T01:56:03.137Z,4.90
2024-01-17T01:58:31.205Z,4.75
2024-01-17T02:00:58.649Z,4.70
2024-01-17T02:03:27.242Z,4.68
2024-01-17T02:05:54.650Z,4.35
2024-01-17T02:08:21.674Z,4.93
2024-01-17T02:10:48.729Z,4.30
2024-01-17T02:13:16.333Z,4.70
2024-01-17T02:15:43.239Z,4.60
2024-01-17T02:18:10.465Z,4.43
2024-01-17T02:20:37.777Z,4.43
2024-01-17T02:23:22.209Z,4.38
2024-01-17T02:25:50.289Z,3.80
2024-01-17T02:28:18.974Z,3.88
2024-01-17T02:30:46.387Z,4.45
2024-01-17T02:33:14.473Z,4.57
2024-01-17T02:35:41.616Z,4.60
2024-01-17T02:38:08.540Z,4.63
2024-01-17T02:40:36.094Z,4.60
2024-01-17T02:43:03.257Z,4.28
2024-01-17T02:45:30.196Z,4.57
2024-01-17T02:47:57.289Z,4.28
2024-01-17T02:50:25.333Z,4.50
2024-01-17T02:52:55.257Z,4.30
2024-01-17T02:55:24.650Z,4.07
2024-01-17T02:57:54.994Z,4.72
2024-01-17T03:00:22.138Z,4.70
2024-01-17T03:02:49.317Z,4.60
2024-01-17T03:05:16.200Z,4.65
2024-01-17T03:07:43.276Z,4.93
2024-01-17T03:10:13.566Z,4.88
2024-01-17T03:12:41.191Z,4.88
2024-01-17T03:15:09.686Z,4.80
2024-01-17T03:17:38.431Z,4.90
2024-01-17T03:20:07.345Z,5.55
2024-01-17T03:22:34.584Z,5.00
2024-01-17T03:25:01.390Z,5.57
2024-01-17T03:27:28.542Z,5.50
2024-01-17T03:29:55.607Z,5.32
2024-01-17T03:32:22.776Z,5.80
2024-01-17T03:34:51.363Z,5.40
2024-01-17T03:37:18.399Z,5.28
2024-01-17T03:39:49.448Z,5.57
2024-01-17T03:42:18.064Z,5.75
2024-01-17T03:44:45.472Z,5.68
2024-01-17T03:47:12.884Z,5.72
2024-01-17T03:49:40.592Z,5.78
2024-01-17T03:52:08.923Z,6.18
2024-01-17T03:54:38.100Z,6.28
2024-01-17T03:57:06.061Z,6.57
2024-01-17T03:59:33.351Z,6.90
2024-01-17T04:02:00.230Z,6.68
2024-01-17T04:04:27.399Z,6.90
2024-01-17T04:06:55.139Z,6.78
2024-01-17T04:09:22.244Z,6.65
2024-01-17T04:11:49.852Z,6.53
2024-01-17T04:14:16.884Z,6.68
2024-01-17T04:16:44.054Z,7.00
2024-01-17T04:19:11.338Z,6.47
2024-01-17T04:21:38.351Z,6.70
2024-01-17T04:24:05.804Z,7.10
2024-01-17T04:26:33.095Z,6.25
2024-01-17T04:29:00.392Z,6.53
2024-01-17T04:31:30.864Z,6.65
2024-01-17T04:33:58.852Z,7.20
2024-01-17T04:36:29.213Z,6.97
2024-01-17T04:38:56.252Z,5.78
2024-01-17T04:41:23.083Z,5.90
2024-01-17T04:43:49.935Z,6.18
2024-01-17T04:46:17.385Z,6.35
2024-01-17T04:48:44.887Z,5.65
2024-01-17T04:51:13.900Z,5.88
2024-01-17T04:53:44.577Z,5.90
2024-01-17T04:56:13.175Z,5.90
2024-01-17T04:58:41.338Z,5.95
2024-01-17T05:01:08.388Z,6.00
2024-01-17T05:03:35.455Z,5.43
2024-01-17T05:06:03.364Z,5.43
2024-01-17T05:08:30.768Z,5.45
2024-01-17T05:10:58.316Z,5.13
2024-01-17T05:13:25.298Z,5.82
2024-01-17T05:15:52.585Z,4.80
2024-01-17T05:18:19.782Z,5.30
2024-01-17T05:20:49.079Z,5.10
2024-01-17T05:23:16.008Z,5.03
2024-01-17T05:25:42.861Z,4.88
2024-01-17T05:28:09.809Z,4.85
2024-01-17T05:30:37.032Z,5.25
2024-01-17T05:33:04.513Z,4.93
2024-01-17T05:35:31.644Z,5.60
2024-01-17T05:38:00.031Z,4.90
2024-01-17T05:40:27.112Z,5.20
2024-01-17T05:42:54.985Z,5.13
2024-01-17T05:45:22.448Z,4.78
2024-01-17T05:47:51.509Z,5.13
2024-01-17T05:50:18.976Z,5.30
2024-01-17T05:52:50.445Z,4.97
2024-01-17T05:55:17.585Z,4.73
2024-01-17T05:57:44.987Z,5.15
2024-01-17T06:00:12.714Z,4.63
2024-01-17T06:02:40.334Z,4.63
2024-01-17T06:05:09.301Z,4.80
2024-01-17T06:07:36.456Z,4.85
2024-01-17T06:10:03.646Z,4.63
2024-01-17T06:12:30.652Z,4.97
2024-01-17T06:15:00.946Z,5.40
2024-01-17T06:17:28.277Z,4.95
2024-01-17T06:19:55.588Z,4.80
2024-01-17T06:22:22.596Z,5.15
2024-01-17T06:24:49.630Z,5.40
2024-01-17T06:27:17.125Z,5.10
2024-01-17T06:29:45.459Z,5.03
2024-01-17T06:32:13.131Z,4.70
2024-01-17T06:34:40.789Z,5.13
2024-01-17T06:37:08.135Z,4.97
2024-01-17T06:39:38.144Z,5.40
2024-01-17T06:42:05.891Z,5.10
2024-01-17T06:44:33.058Z,5.07
2024-01-17T06:47:00.509Z,5.30
2024-01-17T06:49:28.071Z,5.63
2024-01-17T06:51:56.708Z,5.20
2024-01-17T06:54:23.853Z,5.10
2024-01-17T06:56:51.491Z,5.00
2024-01-17T06:59:18.720Z,5.30
2024-01-17T07:01:45.503Z,5.22
2024-01-17T07:04:12.777Z,5.00
2024-01-17T07:06:39.948Z,5.50
2024-01-17T07:09:07.084Z,5.45
2024-01-17T07:11:34.702Z,5.05
2024-01-17T07:14:04.623Z,5.25
2024-01-17T07:16:32.145Z,5.03
2024-01-17T07:19:00.361Z,5.18
2024-01-17T07:21:27.558Z,5.28
2024-01-17T07:23:54.914Z,5.28
2024-01-17T07:26:22.084Z,5.47
2024-01-17T07:28:48.971Z,5.65
2024-01-17T07:31:16.754Z,5.30
2024-01-17T07:33:44.394Z,4.70
2024-01-17T07:36:11.606Z,5.15
2024-01-17T07:38:38.690Z,5.57
2024-01-17T07:41:05.683Z,5.05
2024-01-17T07:43:35.884Z,5.35
2024-01-17T07:46:03.147Z,5.68
2024-01-17T07:48:30.533Z,5.22
2024-01-17T07:50:57.962Z,5.38
2024-01-17T07:53:28.807Z,5.55
2024-01-17T07:55:57.507Z,5.43
2024-01-17T07:58:24.591Z,5.22
2024-01-17T08:00:51.673Z,5.75
2024-01-17T08:03:18.719Z,5.40
2024-01-17T08:05:46.201Z,5.72
2024-01-17T08:08:13.073Z,5.35
2024-01-17T08:10:40.386Z,5.82
2024-01-17T08:13:07.240Z,5.53
2024-01-17T08:15:36.674Z,5.65
2024-01-17T08:18:05.141Z,5.50
2024-01-17T08:20:33.063Z,5.50
2024-01-17T08:23:00.109Z,5.55
2024-01-17T08:25:27.859Z,6.03
2024-01-17T08:27:55.990Z,6.30
2024-01-17T08:30:22.893Z,6.30
2024-01-17T08:32:50.162Z,6.18
2024-01-17T08:35:17.096Z,6.10
2024-01-17T08:37:44.341Z,5.90
2024-01-17T08:40:12.180Z,5.35
2024-01-17T08:42:39.395Z,5.72
2024-01-17T08:45:07.574Z,5.43
2024-01-17T08:47:34.585Z,5.68
2024-01-17T08:50:01.943Z,6.20
2024-01-17T08:52:28.774Z,6.03
2024-01-17T08:55:02.360Z,6.20
2024-01-17T08:57:29.106Z,6.00
2024-01-17T08:59:56.078Z,6.75
2024-01-17T09:02:22.948Z,6.82
2024-01-17T09:04:49.708Z,6.60
2024-01-17T09:07:16.751Z,6.97
2024-01-17T09:09:43.500Z,6.78
2024-01-17T09:12:14.095Z,6.72
2024-01-17T09:14:44.736Z,6.68
2024-01-17T09:17:12.229Z,7.20
2024-01-17T09:19:39.192Z,7.88
2024-01-17T09:22:06.033Z,7.20
2024-01-17T09:24:32.887Z,6.88
2024-01-17T09:27:00.004Z,7.05
2024-01-17T09:29:26.905Z,7.03
2024-01-17T09:31:54.765Z,7.57
2024-01-17T09:34:21.678Z,7.53
2024-01-17T09:36:49.062Z,7.13
2024-01-17T09:39:16.121Z,7.03
2024-01-17T09:41:43.325Z,7.57
2024-01-17T09:44:10.340Z,7.32
2024-01-17T09:46:39.644Z,7.90
2024-01-17T09:49:06.858Z,8.05
2024-01-17T09:51:34.851Z,7.60
2024-01-17T09:54:06.608Z,8.10
2024-01-17T09:56:35.255Z,7.78
2024-01-17T09:59:10.774Z,8.10
2024-01-17T10:01:40.190Z,7.53
2024-01-17T10:04:07.396Z,8.48
2024-01-17T10:06:34.549Z,8.50
2024-01-17T10:09:01.531Z,7.65
2024-01-17T10:11:28.478Z,7.82
2024-01-17T10:13:55.364Z,7.35
2024-01-17T10:16:22.216Z,7.80
2024-01-17T10:18:49.391Z,7.82
2024-01-17T10:21:18.514Z,8.10
2024-01-17T10:23:46.237Z,7.35
2024-01-17T10:26:13.435Z,7.32
2024-01-17T10:28:40.651Z,7.85
2024-01-17T10:31:07.625Z,8.02
2024-01-17T10:33:34.775Z,7.90
2024-01-17T10:36:01.895Z,7.15
2024-01-17T10:38:33.244Z,7.32
2024-01-17T10:41:11.134Z,7.68
2024-01-17T10:43:55.143Z,8.45
2024-01-17T10:46:22.461Z,7.57
2024-01-17T10:48:49.655Z,7.72
2024-01-17T10:51:24.596Z,7.65
2024-01-17T10:53:56.718Z,7.47
2024-01-17T10:56:25.206Z,7.63
2024-01-17T10:58:52.991Z,7.53
2024-01-17T11:01:26.698Z,7.95
2024-01-17T11:03:54.463Z,7.25
2024-01-17T11:06:22.029Z,7.50
2024-01-17T11:08:49.408Z,7.90
2024-01-17T11:11:16.646Z,7.10
2024-01-17T11:13:44.305Z,7.43
2024-01-17T11:16:12.747Z,7.10
2024-01-17T11:18:42.079Z,6.90
2024-01-17T11:21:09.073Z,7.97
2024-01-17T11:23:36.046Z,7.13
2024-01-17T11:26:08.548Z,7.82
2024-01-17T11:31:02.396Z,7.28
2024-01-17T11:33:31.900Z,6.95
2024-01-17T11:36:01.960Z,7.22
2024-01-17T11:38:35.260Z,7.65
2024-01-17T11:41:07.255Z,8.55
2024-01-17T11:43:42.845Z,7.93
2024-01-17T11:46:10.999Z,7.40
2024-01-17T11:48:40.017Z,7.10
2024-01-17T11:51:13.337Z,7.93
2024-01-17T11:53:42.279Z,7.32
2024-01-17T11:56:10.246Z,7.60
2024-01-17T11:58:43.936Z,7.43
2024-01-17T12:01:11.693Z,7.95
2024-01-17T12:03:41.165Z,7.53
2024-01-17T12:06:09.620Z,7.88
2024-01-17T12:08:39.393Z,9.10
2024-01-17T12:11:07.972Z,8.10
2024-01-17T12:13:38.608Z,7.85
2024-01-17T12:16:07.038Z,7.97
2024-01-17T12:18:34.780Z,8.60
2024-01-17T12:21:04.643Z,8.00
2024-01-17T12:23:32.544Z,7.65
2024-01-17T12:26:00.580Z,7.53
2024-01-17T12:28:29.425Z,8.68
2024-01-17T12:30:59.641Z,8.93
2024-01-17T12:33:28.071Z,8.40
2024-01-17T12:35:55.998Z,8.52
2024-01-17T12:38:22.853Z,8.18
2024-01-17T12:40:50.617Z,9.05
2024-01-17T12:43:18.135Z,8.82
2024-01-17T12:45:48.158Z,8.95
2024-01-17T12:48:16.148Z,8.50
2024-01-17T12:50:49.692Z,9.05
2024-01-17T12:53:17.360Z,8.02
2024-01-17T12:55:44.662Z,8.20
2024-01-17T12:58:12.679Z,7.97
2024-01-17T13:00:40.125Z,8.07
2024-01-17T13:03:14.238Z,8.27
2024-01-17T13:05:44.900Z,8.00
2024-01-17T13:08:16.378Z,8.48
2024-01-17T13:10:43.549Z,7.60
2024-01-17T13:13:11.372Z,7.85
2024-01-17T13:15:40.016Z,8.18
2024-01-17T13:18:10.177Z,8.15
2024-01-17T13:20:41.032Z,8.38
2024-01-17T13:23:11.227Z,7.53
2024-01-17T13:25:38.207Z,7.00
2024-01-17T13:28:05.579Z,7.25
2024-01-17T13:30:38.512Z,6.63
2024-01-17T13:33:07.715Z,6.68
2024-01-17T13:35:35.782Z,7.00
2024-01-17T13:38:04.224Z,6.93
2024-01-17T13:40:31.321Z,7.70
2024-01-17T13:42:58.532Z,7.75
2024-01-17T13:45:27.513Z,7.07
2024-01-17T13:47:57.031Z,8.27
2024-01-17T13:50:26.898Z,7.55
2024-01-17T13:52:55.198Z,8.80
2024-01-17T13:55:25.457Z,8.40
2024-01-17T13:57:54.999Z,8.25
2024-01-17T14:00:25.897Z,8.32
2024-01-17T14:02:59.525Z,8.50
2024-01-17T14:05:28.343Z,8.18
2024-01-17T14:07:55.044Z,8.90
2024-01-17T14:10:24.778Z,9.20
2024-01-17T14:12:51.541Z,8.70
2024-01-17T14:15:18.542Z,8.65
2024-01-17T14:17:45.518Z,8.18
2024-01-17T14:20:18.735Z,8.68
2024-01-17T14:22:48.678Z,8.20
2024-01-17T14:25:16.581Z,8.05
2024-01-17T14:27:43.599Z,8.52
2024-01-17T14:30:11.521Z,9.57
2024-01-17T14:32:38.666Z,8.95
2024-01-17T14:35:06.167Z,9.10
2024-01-17T14:37:36.192Z,8.43
2024-01-17T14:40:02.992Z,9.73
2024-01-17T14:42:29.847Z,8.88
2024-01-17T14:44:57.134Z,9.13
2024-01-17T14:47:24.060Z,8.68
2024-01-17T14:49:50.885Z,9.07
2024-01-17T14:52:18.024Z,8.80
2024-01-17T14:54:44.862Z,9.25
2024-01-17T14:57:12.543Z,9.20
2024-01-17T14:59:39.540Z,9.45
2024-01-17T15:02:07.200Z,8.13
2024-01-17T15:04:37.740Z,8.88
2024-01-17T15:07:07.017Z,9.00
2024-01-17T15:09:37.220Z,9.88
2024-01-17T15:12:04.593Z,10.05
2024-01-17T15:14:31.536Z,11.25
2024-01-17T15:16:58.627Z,11.15
2024-01-17T15:19:25.928Z,10.18
2024-01-17T15:21:53.150Z,10.25
2024-01-17T15:24:20.270Z,9.88
2024-01-17T15:26:47.046Z,10.20
2024-01-17T15:29:15.800Z,9.90
2024-01-17T15:31:42.917Z,9.07
2024-01-17T15:34:10.218Z,10.27
2024-01-17T15:36:38.950Z,10.40
2024-01-17T15:39:07.712Z,10.35
2024-01-17T15:41:36.345Z,12.43
2024-01-17T15:44:04.266Z,12.80
2024-01-17T15:46:31.717Z,11.93
2024-01-17T15:49:01.132Z,12.20
2024-01-17T15:51:28.255Z,13.10
2024-01-17T15:53:55.181Z,12.70
2024-01-17T15:56:22.830Z,12.30
2024-01-17T15:58:49.705Z,12.27
2024-01-17T16:01:16.515Z,12.38
2024-01-17T16:03:43.682Z,12.82
2024-01-17T16:06:11.267Z,12.05
2024-01-17T16:08:38.688Z,12.90
2024-01-17T16:11:06.577Z,13.00
2024-01-17T16:13:35.132Z,12.25
2024-01-17T16:16:02.509Z,11.65
2024-01-17T16:18:29.379Z,12.23
2024-01-17T16:20:56.619Z,11.70
2024-01-17T16:23:23.481Z,11.63
2024-01-17T16:25:50.274Z,11.73
2024-01-17T16:28:17.518Z,10.98
2024-01-17T16:30:47.851Z,10.77
2024-01-17T16:33:14.637Z,10.85
2024-01-17T16:35:42.775Z,10.43
2024-01-17T16:38:09.587Z,10.70
2024-01-17T16:40:36.279Z,10.68
2024-01-17T16:43:03.071Z,10.95
2024-01-17T16:45:29.879Z,10.75
2024-01-17T16:47:56.743Z,10.43
2024-01-17T16:50:24.045Z,11.32
2024-01-17T16:52:50.681Z,11.40
2024-01-17T16:55:17.590Z,12.93
2024-01-17T16:57:44.434Z,11.85
2024-01-17T17:00:11.479Z,12.18
2024-01-17T17:02:38.377Z,12.30
2024-01-17T17:05:09.331Z,12.27
2024-01-17T17:07:36.685Z,12.00
2024-01-17T17:10:04.212Z,11.77
2024-01-17T17:12:31.255Z,11.60
2024-01-17T17:14:58.093Z,11.57
2024-01-17T17:17:25.362Z,11.48
2024-01-17T17:19:52.233Z,11.35
2024-01-17T17:22:27.650Z,11.57
2024-01-17T17:25:00.800Z,10.93
2024-01-17T17:27:27.746Z,10.93
2024-01-17T17:29:54.742Z,11.43
2024-01-17T17:32:25.301Z,12.15
2024-01-17T17:34:54.356Z,11.02
2024-01-17T17:37:23.287Z,11.80
2024-01-17T17:39:52.580Z,11.32
2024-01-17T17:42:19.717Z,11.48
2024-01-17T17:44:46.699Z,10.73
2024-01-17T17:47:14.809Z,11.13
2024-01-17T17:49:43.006Z,11.23
2024-01-17T17:52:10.247Z,11.18
2024-01-17T17:54:37.066Z,10.80
2024-01-17T17:57:04.035Z,10.63
2024-01-17T17:59:31.118Z,10.95
2024-01-17T18:01:58.403Z,9.75
2024-01-17T18:04:26.364Z,10.30
2024-01-17T18:06:54.697Z,11.23
2024-01-17T18:09:22.550Z,11.30
2024-01-17T18:11:49.913Z,11.43
2024-01-17T18:14:17.133Z,11.18
2024-01-17T18:16:44.208Z,11.23
2024-01-17T18:19:13.733Z,11.50
2024-01-17T18:21:40.919Z,11.82
2024-01-17T18:24:09.087Z,11.60
2024-01-17T18:26:36.398Z,12.15
2024-01-17T18:29:06.617Z,12.48
2024-01-17T18:31:38.193Z,12.00
2024-01-17T18:34:06.922Z,11.73
2024-01-17T18:36:35.265Z,11.65
2024-01-17T18:39:02.263Z,12.45
2024-01-17T18:41:30.885Z,11.45
2024-01-17T18:43:58.458Z,11.88
2024-01-17T18:46:25.716Z,11.52
2024-01-17T18:48:53.423Z,11.73
2024-01-17T18:51:20.724Z,11.73
2024-01-17T18:53:51.115Z,11.93
2024-01-17T18:56:18.030Z,12.35
2024-01-17T18:58:47.861Z,11.90
2024-01-17T19:01:14.910Z,11.27
2024-01-17T19:03:42.154Z,11.18
2024-01-17T19:06:09.254Z,11.02
2024-01-17T19:08:36.680Z,12.27
2024-01-17T19:11:03.814Z,10.35
2024-01-17T19:13:30.957Z,10.98
2024-01-17T19:15:57.842Z,11.10
2024-01-17T19:18:24.912Z,11.02
2024-01-17T19:20:54.366Z,11.18
2024-01-17T19:23:21.562Z,10.90
2024-01-17T19:25:48.519Z,10.23
2024-01-17T19:28:15.368Z,10.68
2024-01-17T19:30:42.374Z,10.88
2024-01-17T19:33:10.558Z,10.68
2024-01-17T19:35:37.552Z,10.32
2024-01-17T19:38:04.599Z,11.10
2024-01-17T19:40:36.766Z,9.77
2024-01-17T19:43:03.697Z,10.40
2024-01-17T19:45:30.812Z,10.38
2024-01-17T19:47:58.251Z,10.50
2024-01-17T19:50:25.551Z,9.90
2024-01-17T19:52:52.456Z,10.80
2024-01-17T19:55:20.478Z,10.95
2024-01-17T19:57:49.005Z,10.48
2024-01-17T20:00:28.738Z,10.55
2024-01-17T20:02:56.035Z,10.43
2024-01-17T20:05:23.283Z,10.18
2024-01-17T20:07:50.226Z,10.25
2024-01-17T20:10:17.179Z,11.07
2024-01-17T20:12:44.097Z,10.25
2024-01-17T20:15:11.027Z,10.13
2024-01-17T20:17:38.211Z,10.60
2024-01-17T20:20:08.172Z,10.38
2024-01-17T20:22:35.322Z,10.45
2024-01-17T20:25:02.976Z,9.70
2024-01-17T20:27:30.467Z,10.02
2024-01-17T20:29:57.456Z,9.85
2024-01-17T20:32:25.068Z,9.00
2024-01-17T20:34:54.659Z,9.70
2024-01-17T20:37:22.346Z,9.63
2024-01-17T20:39:49.291Z,9.60
2024-01-17T20:42:17.733Z,10.32
2024-01-17T20:44:46.388Z,9.57
2024-01-17T20:47:13.421Z,9.63
2024-01-17T20:49:44.254Z,8.82
2024-01-17T20:52:11.048Z,8.88
2024-01-17T20:54:37.799Z,8.63
2024-01-17T20:57:04.846Z,8.82
2024-01-17T20:59:32.271Z,8.23
2024-01-17T21:01:59.484Z,8.85
2024-01-17T21:04:26.624Z,8.70
2024-01-17T21:06:53.685Z,9.20
2024-01-17T21:09:20.582Z,8.48
2024-01-17T21:11:47.395Z,8.35
2024-01-17T21:14:14.452Z,9.02
2024-01-17T21:16:43.907Z,8.90
2024-01-17T21:19:12.290Z,8.40
2024-01-17T21:21:42.862Z,8.80
2024-01-17T21:24:10.045Z,8.73
2024-01-17T21:26:41.424Z,8.52
2024-01-17T21:29:10.016Z,8.68
2024-01-17T21:31:38.077Z,8.57
2024-01-17T21:34:06.767Z,8.60
2024-01-17T21:36:35.999Z,8.93
2024-01-17T21:39:05.408Z,8.50
2024-01-17T21:41:32.608Z,8.13
2024-01-17T21:43:59.712Z,8.30
2024-01-17T21:46:26.924Z,7.82
2024-01-17T21:48:54.002Z,7.88
2024-01-17T21:51:21.298Z,8.18
2024-01-17T21:53:48.552Z,8.13
2024-01-17T21:56:15.854Z,7.40
2024-01-17T21:58:42.815Z,7.25
2024-01-17T22:01:10.358Z,7.97
2024-01-17T22:03:41.186Z,8.10
2024-01-17T22:06:08.771Z,8.05
2024-01-17T22:08:48.158Z,7.82
2024-01-17T22:11:20.257Z,7.40
2024-01-17T22:13:48.266Z,7.78
2024-01-17T22:16:15.511Z,6.82
2024-01-17T22:18:42.913Z,6.78
2024-01-17T22:21:20.585Z,7.00
2024-01-17T22:23:47.817Z,6.88
2024-01-17T22:26:14.984Z,7.10
2024-01-17T22:28:43.340Z,7.38
2024-01-17T22:31:12.984Z,7.22
2024-01-17T22:33:40.042Z,6.75
2024-01-17T22:36:08.018Z,6.47
2024-01-17T22:38:37.955Z,6.60
2024-01-17T22:41:04.996Z,7.43
2024-01-17T22:43:32.034Z,6.90
2024-01-17T22:45:58.847Z,6.50
2024-01-17T22:48:28.668Z,6.97
2024-01-17T22:50:55.716Z,7.05
2024-01-17T22:53:22.512Z,7.00
2024-01-17T22:55:49.428Z,7.03
2024-01-17T22:58:16.211Z,7.03
2024-01-17T23:00:43.214Z,7.07
2024-01-17T23:03:10.391Z,6.70
2024-01-17T23:05:37.746Z,6.57
2024-01-17T23:08:10.823Z,6.63
2024-01-17T23:10:38.639Z,6.93
2024-01-17T23:13:05.804Z,7.10
2024-01-17T23:15:32.835Z,6.75
2024-01-17T23:18:00.133Z,6.90
2024-01-17T23:20:27.707Z,6.25
2024-01-17T23:22:57.032Z,6.40
2024-01-17T23:25:24.033Z,6.85
2024-01-17T23:27:51.003Z,6.93
2024-01-17T23:30:18.221Z,6.03
2024-01-17T23:32:45.380Z,6.10
2024-01-17T23:35:12.367Z,6.07
2024-01-17T23:37:39.360Z,6.22
2024-01-17T23:40:07.276Z,6.38
2024-01-17T23:42:38.438Z,6.00
2024-01-17T23:45:06.007Z,6.00
2024-01-17T23:47:33.002Z,5.57
2024-01-17T23:50:00.375Z,6.15
2024-01-17T23:52:27.593Z,5.43
2024-01-17T23:54:54.822Z,5.63
2024-01-17T23:57:25.240Z,5.57
2024-01-17T23:59:52.316Z,5.78
